Weather at Astrakhan Narimanovo Boris M. Kustodiev International Airport

Public forecast

Using degrees Celsius for public forecast. Weather courtesy of forecast.io.

Current aviation weather report (METAR) for Astrakhan Narimanovo Boris M. Kustodiev International Airport

Report is more than 6 hours old.

2022/11/14 15:30 (retrieved 2 years ago)

URWA 141530Z 29008MPS 9999 BKN044 07/M01 Q1016 R27/010070 NOSIG RMK QFE763/1018

Closest aviation forecast (TAF) to Astrakhan Narimanovo Boris M. Kustodiev International Airport

Forecast is more than 12 hours old.

Closest forecast is Atyrau International Airport, 164.7 nm (305.0 km) ENE.

2023/02/22 18:21 (retrieved 1 year ago)

TAF UATG 221700Z 2218/2318 28008G13MPS 3100 BR BKN011 BKN020CB TXM02/2310Z TNM10/2304Z TEMPO 2218/2222 -SHSN BR BKN005 OVC015CB BECMG 2306/2308 27008MPS 9999 NSW